createdAt,value
2022-12-31T00:00:44.746Z,983.58
2022-12-31T00:01:44.724Z,983.81
2022-12-31T00:02:44.807Z,984.14
2022-12-31T00:03:44.718Z,984.24
2022-12-31T00:04:44.722Z,984.23
2022-12-31T00:05:44.722Z,984.18
2022-12-31T00:06:44.723Z,984.07
2022-12-31T00:07:44.771Z,984.09
2022-12-31T00:08:47.491Z,984.09
2022-12-31T00:09:44.728Z,984.15
2022-12-31T00:10:44.750Z,983.8
2022-12-31T00:11:44.873Z,983.91
2022-12-31T00:12:44.732Z,984.3
2022-12-31T00:13:44.739Z,984.12
2022-12-31T00:14:44.736Z,984.11
2022-12-31T00:15:44.737Z,984.61
2022-12-31T00:16:44.785Z,984.56
2022-12-31T00:17:44.739Z,985.09
2022-12-31T00:18:44.745Z,984.98
2022-12-31T00:19:47.501Z,985.5
2022-12-31T00:20:44.738Z,985.5
2022-12-31T00:21:44.741Z,986.09
2022-12-31T00:22:44.741Z,986.21
2022-12-31T00:23:44.752Z,986.21
2022-12-31T00:24:44.754Z,986.68
2022-12-31T00:25:44.784Z,986.63
2022-12-31T00:26:44.775Z,986.77
2022-12-31T00:27:44.774Z,987.14
2022-12-31T00:28:44.763Z,987.48
2022-12-31T00:29:44.754Z,988.04
2022-12-31T00:30:48.125Z,988.36
2022-12-31T00:31:44.766Z,988.42
2022-12-31T00:32:44.766Z,988.44
2022-12-31T00:33:44.766Z,988.65
2022-12-31T00:34:44.770Z,989.03
2022-12-31T00:35:44.769Z,989.38
2022-12-31T00:36:44.772Z,989.38
2022-12-31T00:37:44.766Z,989.77
2022-12-31T00:38:44.773Z,989.84
2022-12-31T00:39:44.779Z,989.9
2022-12-31T00:40:44.769Z,990.19
2022-12-31T00:41:47.623Z,990.54
2022-12-31T00:42:44.782Z,990.86
2022-12-31T00:43:44.800Z,991.29
2022-12-31T00:44:44.777Z,991.76
2022-12-31T00:45:44.819Z,992.24
2022-12-31T00:47:44.793Z,992.5
2022-12-31T00:48:44.782Z,992.44
2022-12-31T00:49:44.797Z,992.89
2022-12-31T00:50:44.794Z,993.29
2022-12-31T00:51:44.791Z,993.43
2022-12-31T00:52:47.564Z,993.57
2022-12-31T00:53:44.794Z,994.07
2022-12-31T00:54:44.798Z,994.5
2022-12-31T00:55:44.807Z,994.93
2022-12-31T00:56:44.803Z,995.15
2022-12-31T00:57:44.805Z,995.15
2022-12-31T00:58:44.815Z,995.63
2022-12-31T00:59:44.929Z,996.11
2022-12-31T01:00:44.805Z,996.32
2022-12-31T01:01:44.906Z,996.66
2022-12-31T01:02:44.917Z,996.78
2022-12-31T01:03:44.819Z,997.26
2022-12-31T01:04:44.815Z,997.59
2022-12-31T01:05:44.816Z,998.17
2022-12-31T01:06:44.822Z,998.49
2022-12-31T01:07:44.821Z,999.51
2022-12-31T01:08:44.817Z,999.76
2022-12-31T01:09:44.817Z,1000.34
2022-12-31T01:10:44.827Z,1000.81
2022-12-31T01:11:44.837Z,1001.04
2022-12-31T01:12:44.824Z,1001.44
2022-12-31T01:13:44.832Z,1001.83
2022-12-31T01:14:44.843Z,1002.13
2022-12-31T01:15:44.874Z,1002.93
2022-12-31T01:16:44.829Z,1002.93
2022-12-31T01:17:44.843Z,1003.16
2022-12-31T01:18:44.839Z,1003.69
2022-12-31T01:19:44.843Z,1003.77
2022-12-31T01:20:44.846Z,1003.87
2022-12-31T01:21:44.839Z,1004.44
2022-12-31T01:22:44.847Z,1004.66
2022-12-31T01:23:44.857Z,1004.91
2022-12-31T01:24:44.851Z,1005.2
2022-12-31T01:25:44.853Z,1005.2
2022-12-31T01:26:44.860Z,1005.92
2022-12-31T01:27:44.856Z,1005.93
2022-12-31T01:28:44.857Z,1006.12
2022-12-31T01:29:44.849Z,1006.95
2022-12-31T01:30:44.879Z,1006.72
2022-12-31T01:31:44.889Z,1007.03
2022-12-31T01:32:44.862Z,1007.35
2022-12-31T01:33:44.858Z,1007.32
2022-12-31T01:34:44.869Z,1007.43
2022-12-31T01:35:44.865Z,1007.79
2022-12-31T01:36:44.860Z,1008.01
2022-12-31T01:37:44.864Z,1008.2
2022-12-31T01:38:44.866Z,1008.48
2022-12-31T01:39:44.877Z,1008.69
2022-12-31T01:40:44.866Z,1008.7
2022-12-31T01:41:44.908Z,1008.58
2022-12-31T01:42:44.875Z,1009.07
2022-12-31T01:43:44.880Z,1008.97
2022-12-31T01:44:44.882Z,1009.08
2022-12-31T01:45:44.879Z,1009.62
2022-12-31T01:46:44.938Z,1010.03
2022-12-31T01:47:44.909Z,1009.78
2022-12-31T01:48:44.891Z,1010.41
2022-12-31T01:49:44.889Z,1010.73
2022-12-31T01:50:44.896Z,1011.2
2022-12-31T01:51:44.914Z,1011.65
2022-12-31T01:52:44.889Z,1011.92
2022-12-31T01:53:44.891Z,1012.44
2022-12-31T01:54:44.895Z,1013.37
2022-12-31T01:55:44.902Z,1013.82
2022-12-31T01:56:44.918Z,1014.25
2022-12-31T01:57:44.897Z,1014.82
2022-12-31T01:58:44.897Z,1015.15
2022-12-31T01:59:44.907Z,1015.87
2022-12-31T02:00:44.912Z,1016.4
2022-12-31T02:01:45.042Z,1016.57
2022-12-31T02:02:44.991Z,1016.98
2022-12-31T02:03:44.943Z,1017.24
2022-12-31T02:04:44.923Z,1017.76
2022-12-31T02:05:44.922Z,1018.21
2022-12-31T02:06:44.944Z,1018.17
2022-12-31T02:07:44.913Z,1018.65
2022-12-31T02:08:44.924Z,1018.81
2022-12-31T02:09:44.922Z,1019.08
2022-12-31T02:10:44.915Z,1019.71
2022-12-31T02:11:44.940Z,1020.04
2022-12-31T02:12:44.929Z,1019.91
2022-12-31T02:13:44.931Z,1020.06
2022-12-31T02:14:44.930Z,1020.18
2022-12-31T02:15:44.983Z,1020.32
2022-12-31T02:16:44.954Z,1020.2
2022-12-31T02:17:44.946Z,1020.76
2022-12-31T02:18:44.935Z,1020.89
2022-12-31T02:19:44.966Z,1020.78
2022-12-31T02:20:44.939Z,1021.4
2022-12-31T02:21:44.965Z,1021.34
2022-12-31T02:22:44.938Z,1021.75
2022-12-31T02:23:44.949Z,1021.92
2022-12-31T02:24:44.951Z,1022.36
2022-12-31T02:25:44.946Z,1022.14
2022-12-31T02:26:44.981Z,1022.49
2022-12-31T02:27:44.958Z,1023.09
2022-12-31T02:28:44.958Z,1022.83
2022-12-31T02:29:44.953Z,1022.59
2022-12-31T02:30:44.964Z,1022.97
2022-12-31T02:31:45.005Z,1023.25
2022-12-31T02:32:44.960Z,1023.35
2022-12-31T02:33:44.958Z,1023.26
2022-12-31T02:34:44.989Z,1023.3
2022-12-31T02:35:47.836Z,1023.43
2022-12-31T02:36:45.021Z,1023.5
2022-12-31T02:37:44.987Z,1023.77
2022-12-31T02:38:44.971Z,1024.41
2022-12-31T02:39:44.966Z,1024
2022-12-31T02:40:44.971Z,1024.05
2022-12-31T02:41:45.008Z,1024.12
2022-12-31T02:42:47.404Z,1024.62
2022-12-31T02:43:44.974Z,1024.81
2022-12-31T02:44:44.983Z,1024.72
2022-12-31T02:45:44.980Z,1025.16
2022-12-31T02:46:46.216Z,1025.02
2022-12-31T02:47:44.977Z,1025.47
2022-12-31T02:48:44.987Z,1025.29
2022-12-31T02:49:44.990Z,1025.56
2022-12-31T02:50:44.994Z,1025.62
2022-12-31T02:51:45.021Z,1025.56
2022-12-31T02:52:44.987Z,1025.93
2022-12-31T02:53:44.989Z,1025.96
2022-12-31T02:54:44.994Z,1026.26
2022-12-31T02:55:45.003Z,1026.06
2022-12-31T02:56:44.999Z,1026.21
2022-12-31T02:57:48.037Z,1026.34
2022-12-31T02:58:44.997Z,1026.63
2022-12-31T02:59:45.004Z,1026.27
2022-12-31T03:00:45.049Z,1026.45
2022-12-31T03:01:45.098Z,1026.68
2022-12-31T03:02:45.054Z,1026.37
2022-12-31T03:03:45.006Z,1026.21
2022-12-31T03:04:45.013Z,1026.59
2022-12-31T03:05:45.021Z,1026.34
2022-12-31T03:06:45.014Z,1026.21
2022-12-31T03:07:45.054Z,1026.36
2022-12-31T03:08:48.027Z,1026.21
2022-12-31T03:09:45.023Z,1026.39
2022-12-31T03:10:45.023Z,1026.3
2022-12-31T03:11:45.019Z,1026.11
2022-12-31T03:12:45.022Z,1026.2
2022-12-31T03:13:45.030Z,1026.15
2022-12-31T03:14:45.036Z,1025.82
2022-12-31T03:15:45.030Z,1025.88
2022-12-31T03:16:45.034Z,1025.69
2022-12-31T03:17:45.046Z,1025.46
2022-12-31T03:18:45.041Z,1025.26
2022-12-31T03:19:45.032Z,1024.94
2022-12-31T03:20:45.044Z,1024.75
2022-12-31T03:21:45.039Z,1024.46
2022-12-31T03:22:45.047Z,1024.43
2022-12-31T03:23:45.073Z,1024.53
2022-12-31T03:24:45.061Z,1024.06
2022-12-31T03:25:45.064Z,1024.32
2022-12-31T03:26:45.044Z,1024.18
2022-12-31T03:27:45.057Z,1024.27
2022-12-31T03:28:45.060Z,1024.14
2022-12-31T03:29:45.056Z,1024.24
2022-12-31T03:30:45.071Z,1024.34
2022-12-31T03:31:45.123Z,1024.04
2022-12-31T03:32:45.065Z,1024.65
2022-12-31T03:33:45.066Z,1024.74
2022-12-31T03:34:45.067Z,1024.92
2022-12-31T03:35:45.068Z,1025.21
2022-12-31T03:36:45.072Z,1025.09
2022-12-31T03:37:45.077Z,1025.46
2022-12-31T03:38:48.522Z,1025.48
2022-12-31T03:39:45.096Z,1025.55
2022-12-31T03:40:45.102Z,1025.9
2022-12-31T03:41:45.074Z,1025.9
2022-12-31T03:42:45.071Z,1026.34
2022-12-31T03:43:45.078Z,1026.43
2022-12-31T03:44:45.081Z,1026.62
2022-12-31T03:45:45.092Z,1026.82
2022-12-31T03:46:45.086Z,1026.89
2022-12-31T03:47:45.089Z,1027.04
2022-12-31T03:48:45.080Z,1027.32
2022-12-31T03:49:45.089Z,1027.31
2022-12-31T03:50:45.258Z,1027.65
2022-12-31T03:51:45.087Z,1027.71
2022-12-31T03:52:45.088Z,1028.3
2022-12-31T03:53:45.102Z,1027.91
2022-12-31T03:54:45.105Z,1028.37
2022-12-31T03:55:45.119Z,1028.48
2022-12-31T03:56:45.098Z,1028.64
2022-12-31T03:57:45.103Z,1028.6
2022-12-31T03:58:45.100Z,1028.82
2022-12-31T03:59:45.099Z,1029
2022-12-31T04:00:45.151Z,1029.24
2022-12-31T04:01:45.184Z,1029.49
2022-12-31T04:02:45.152Z,1029.67
2022-12-31T04:03:45.116Z,1029.79
2022-12-31T04:04:45.118Z,1030.01
2022-12-31T04:05:45.119Z,1029.82
2022-12-31T04:06:45.116Z,1029.81
2022-12-31T04:07:45.119Z,1029.78
2022-12-31T04:08:45.116Z,1029.55
2022-12-31T04:09:45.119Z,1029.57
2022-12-31T04:10:45.125Z,1029.38
2022-12-31T04:11:45.146Z,1029.09
2022-12-31T04:12:45.133Z,1029
2022-12-31T04:13:45.124Z,1028.71
2022-12-31T04:14:45.129Z,1028.56
2022-12-31T04:15:45.127Z,1027.97
2022-12-31T04:16:45.173Z,1027.51
2022-12-31T04:17:45.176Z,1027.02
2022-12-31T04:18:45.132Z,1027.2
2022-12-31T04:19:45.133Z,1026.27
2022-12-31T04:20:45.137Z,1026.15
2022-12-31T04:21:45.136Z,1025.73
2022-12-31T04:22:45.186Z,1025.37
2022-12-31T04:23:45.144Z,1025.27
2022-12-31T04:24:45.143Z,1024.79
2022-12-31T04:25:45.156Z,1024.15
2022-12-31T04:26:45.152Z,1024.28
2022-12-31T04:27:45.206Z,1024.12
2022-12-31T04:28:45.154Z,1023.93
2022-12-31T04:29:45.158Z,1023.68
2022-12-31T04:30:45.173Z,1023.84
2022-12-31T04:31:45.197Z,1023.57
2022-12-31T04:32:45.165Z,1023.4
2022-12-31T04:33:45.158Z,1023.35
2022-12-31T04:34:45.158Z,1023.48
2022-12-31T04:35:45.159Z,1023.38
2022-12-31T04:36:45.168Z,1023.54
2022-12-31T04:37:45.184Z,1023.63
2022-12-31T04:38:45.176Z,1023.75
2022-12-31T04:39:45.173Z,1023.56
2022-12-31T04:40:45.172Z,1023.81
2022-12-31T04:41:45.200Z,1023.98
2022-12-31T04:42:45.180Z,1024.15
2022-12-31T04:43:45.213Z,1024.47
2022-12-31T04:44:45.183Z,1024.72
2022-12-31T04:45:45.230Z,1024.84
2022-12-31T04:46:45.186Z,1024.78
2022-12-31T04:47:45.187Z,1024.97
2022-12-31T04:48:45.181Z,1025.18
2022-12-31T04:49:45.182Z,1025.48
2022-12-31T04:50:45.191Z,1025.63
2022-12-31T04:51:45.234Z,1025.93
2022-12-31T04:52:45.221Z,1025.8
2022-12-31T04:53:45.201Z,1026.07
2022-12-31T04:54:45.200Z,1026.33
2022-12-31T04:55:45.192Z,1026.44
2022-12-31T04:56:45.198Z,1026.74
2022-12-31T04:57:45.230Z,1026.8
2022-12-31T04:58:45.201Z,1026.94
2022-12-31T04:59:45.227Z,1026.96
2022-12-31T05:00:45.212Z,1027.31
2022-12-31T05:01:45.361Z,1027.18
2022-12-31T05:02:46.422Z,1027.45
2022-12-31T05:03:45.217Z,1027.65
2022-12-31T05:04:45.212Z,1027.34
2022-12-31T05:05:45.214Z,1027.45
2022-12-31T05:06:45.216Z,1027.21
2022-12-31T05:07:45.222Z,1027.16
2022-12-31T05:08:45.224Z,1027.1
2022-12-31T05:09:45.221Z,1026.8
2022-12-31T05:10:45.219Z,1026.47
2022-12-31T05:11:45.233Z,1026.16
2022-12-31T05:12:45.229Z,1026.17
2022-12-31T05:13:48.020Z,1025.61
2022-12-31T05:14:45.231Z,1025.65
2022-12-31T05:15:45.262Z,1025.42
2022-12-31T05:16:45.251Z,1025.33
2022-12-31T05:17:45.236Z,1024.75
2022-12-31T05:18:45.242Z,1024.32
2022-12-31T05:19:45.241Z,1024.38
2022-12-31T05:20:45.237Z,1024.12
2022-12-31T05:21:45.250Z,1024.2
2022-12-31T05:22:45.245Z,1024.05
2022-12-31T05:23:45.246Z,1024.28
2022-12-31T05:24:48.323Z,1024.17
2022-12-31T05:25:45.254Z,1024.11
2022-12-31T05:26:45.256Z,1024.26
2022-12-31T05:27:45.254Z,1024.22
2022-12-31T05:28:45.256Z,1024.27
2022-12-31T05:29:45.258Z,1024.23
2022-12-31T05:30:45.280Z,1024.07
2022-12-31T05:31:45.308Z,1024.19
2022-12-31T05:32:45.265Z,1024.58
2022-12-31T05:33:45.257Z,1024.61
2022-12-31T05:34:45.270Z,1025.08
2022-12-31T05:35:48.145Z,1024.98
2022-12-31T05:36:45.261Z,1025.38
2022-12-31T05:37:45.270Z,1025.25
2022-12-31T05:38:45.279Z,1025.63
2022-12-31T05:39:45.267Z,1025.61
2022-12-31T05:40:45.272Z,1025.44
2022-12-31T05:41:45.284Z,1025.88
2022-12-31T05:42:45.289Z,1026.48
2022-12-31T05:43:45.278Z,1026.53
2022-12-31T05:44:45.288Z,1026.77
2022-12-31T05:45:45.337Z,1026.85
2022-12-31T05:46:45.284Z,1027.25
2022-12-31T05:47:45.310Z,1027.25
2022-12-31T05:48:45.287Z,1027.69
2022-12-31T05:49:45.283Z,1027.86
2022-12-31T05:50:45.292Z,1028.18
2022-12-31T05:51:45.289Z,1028.57
2022-12-31T05:52:47.517Z,1028.52
2022-12-31T05:53:45.289Z,1028.68
2022-12-31T05:54:45.293Z,1028.76
2022-12-31T05:55:45.389Z,1029.12
2022-12-31T05:56:45.309Z,1029.48
2022-12-31T05:57:45.309Z,1029.32
2022-12-31T05:58:45.305Z,1029.73
2022-12-31T05:59:45.301Z,1029.75
2022-12-31T06:00:45.311Z,1029.94
2022-12-31T06:01:45.311Z,1030.3
2022-12-31T06:02:45.357Z,1030.57
2022-12-31T06:03:45.365Z,1030.59
2022-12-31T06:04:45.312Z,1031.07
2022-12-31T06:05:45.315Z,1031.04
2022-12-31T06:06:45.316Z,1031.5
2022-12-31T06:07:45.327Z,1031.53
2022-12-31T06:08:45.320Z,1031.52
2022-12-31T06:09:45.316Z,1031.61
2022-12-31T06:10:45.332Z,1031.7
2022-12-31T06:11:45.326Z,1031.52
2022-12-31T06:12:45.323Z,1031.86
2022-12-31T06:13:45.336Z,1032.16
2022-12-31T06:14:45.868Z,1032.09
2022-12-31T06:15:45.408Z,1032.21
2022-12-31T06:16:45.329Z,1032.13
2022-12-31T06:17:45.451Z,1032.08
2022-12-31T06:18:45.342Z,1031.97
2022-12-31T06:19:45.371Z,1031.89
2022-12-31T06:20:45.335Z,1031.82
2022-12-31T06:21:45.344Z,1031.85
2022-12-31T06:22:45.341Z,1031.95
2022-12-31T06:23:45.352Z,1032.16
2022-12-31T06:24:45.347Z,1032.01
2022-12-31T06:25:45.345Z,1031.62
2022-12-31T06:26:45.359Z,1031.84
2022-12-31T06:27:45.348Z,1031.76
2022-12-31T06:28:45.357Z,1031.4
2022-12-31T06:29:45.350Z,1031.26
2022-12-31T06:30:45.413Z,1031.21
2022-12-31T06:31:45.360Z,1030.75
2022-12-31T06:32:45.368Z,1030.41
2022-12-31T06:33:45.365Z,1030
2022-12-31T06:34:45.364Z,1029.88
2022-12-31T06:35:45.389Z,1029.41
2022-12-31T06:36:45.375Z,1028.89
2022-12-31T06:37:45.373Z,1028.57
2022-12-31T06:38:45.374Z,1028.13
2022-12-31T06:39:45.366Z,1028
2022-12-31T06:40:45.376Z,1028
2022-12-31T06:41:45.371Z,1027.61
2022-12-31T06:42:45.378Z,1027.47
2022-12-31T06:43:45.381Z,1027.6
2022-12-31T06:44:45.382Z,1026.83
2022-12-31T06:45:45.383Z,1026.71
2022-12-31T06:46:45.396Z,1026.76
2022-12-31T06:47:45.393Z,1026.7
2022-12-31T06:48:45.406Z,1026.65
2022-12-31T06:49:45.479Z,1026.36
2022-12-31T06:50:45.394Z,1026.36
2022-12-31T06:51:45.422Z,1026.3
2022-12-31T06:52:45.396Z,1025.79
2022-12-31T06:53:45.439Z,1025.91
2022-12-31T06:54:45.404Z,1025.61
2022-12-31T06:55:45.402Z,1025.36
2022-12-31T06:56:45.403Z,1025.3
2022-12-31T06:57:45.403Z,1024.98
2022-12-31T06:58:45.457Z,1024.75
2022-12-31T06:59:45.404Z,1024.59
2022-12-31T07:00:45.410Z,1024.74
2022-12-31T07:01:45.579Z,1024.85
2022-12-31T07:02:45.547Z,1024.63
2022-12-31T07:03:45.438Z,1024.78
2022-12-31T07:04:45.411Z,1024.93
2022-12-31T07:05:45.414Z,1025.05
2022-12-31T07:06:45.425Z,1024.99
2022-12-31T07:07:48.171Z,1024.82
2022-12-31T07:08:45.444Z,1024.57
2022-12-31T07:09:45.428Z,1024.79
2022-12-31T07:10:45.425Z,1024.88
2022-12-31T07:11:45.431Z,1024.6
2022-12-31T07:12:45.436Z,1024.68
2022-12-31T07:13:45.458Z,1024.88
2022-12-31T07:14:45.430Z,1024.88
2022-12-31T07:15:45.491Z,1025.05
2022-12-31T07:16:45.466Z,1025.38
2022-12-31T07:17:45.437Z,1025.43
2022-12-31T07:18:45.452Z,1025.68
2022-12-31T07:19:45.470Z,1026.08
2022-12-31T07:20:45.439Z,1026.41
2022-12-31T07:21:45.462Z,1026.82
2022-12-31T07:22:45.474Z,1026.84
2022-12-31T07:23:45.492Z,1027.45
2022-12-31T07:24:45.457Z,1027.8
2022-12-31T07:25:45.450Z,1028.12
2022-12-31T07:26:46.896Z,1028.54
2022-12-31T07:27:45.459Z,1028.92
2022-12-31T07:28:45.489Z,1029.28
2022-12-31T07:29:48.273Z,1029.94
2022-12-31T07:30:45.454Z,1030.44
2022-12-31T07:31:45.491Z,1030.97
2022-12-31T07:32:45.459Z,1031.14
2022-12-31T07:33:45.491Z,1031.78
2022-12-31T07:34:45.457Z,1032.44
2022-12-31T07:35:45.470Z,1032.76
2022-12-31T07:36:45.469Z,1033.37
2022-12-31T07:37:45.466Z,1034.19
2022-12-31T07:38:45.500Z,1034.43
2022-12-31T07:39:45.588Z,1034.87
2022-12-31T07:40:48.547Z,1035.59
2022-12-31T07:41:45.472Z,1036.34
2022-12-31T07:42:45.487Z,1036.87
2022-12-31T07:43:45.523Z,1037.87
2022-12-31T07:44:45.476Z,1038.19
2022-12-31T07:45:45.487Z,1038.81
2022-12-31T07:46:45.487Z,1039.29
2022-12-31T07:47:45.485Z,1039.75
2022-12-31T07:48:45.507Z,1040.29
2022-12-31T07:49:45.489Z,1041.05
2022-12-31T07:50:45.500Z,1041.65
2022-12-31T07:51:48.520Z,1042.07
2022-12-31T07:52:45.489Z,1042.7
2022-12-31T07:53:45.523Z,1043.4
2022-12-31T07:54:45.491Z,1043.4
2022-12-31T07:55:45.518Z,1043.53
2022-12-31T07:56:45.519Z,1043.72
2022-12-31T07:57:45.497Z,1044.27
2022-12-31T07:58:45.528Z,1044.95
2022-12-31T07:59:45.514Z,1045.16
2022-12-31T08:00:45.510Z,1045.74
2022-12-31T08:01:45.663Z,1046.2
2022-12-31T08:02:48.587Z,1046.72
2022-12-31T08:03:45.654Z,1047.35
2022-12-31T08:04:45.512Z,1048.21
2022-12-31T08:05:45.521Z,1048.94
2022-12-31T08:06:45.514Z,1049.69
2022-12-31T08:07:45.519Z,1050.88
2022-12-31T08:08:45.550Z,1051.92
2022-12-31T08:09:45.517Z,1053.29
2022-12-31T08:10:45.520Z,1054.47
2022-12-31T08:11:45.553Z,1055.37
2022-12-31T08:12:45.543Z,1056.95
2022-12-31T08:13:45.553Z,1057.88
2022-12-31T08:14:45.574Z,1059.31
2022-12-31T08:15:45.586Z,1060.85
2022-12-31T08:16:45.633Z,1062.25
2022-12-31T08:17:45.537Z,1063.85
2022-12-31T08:18:45.576Z,1065.14
2022-12-31T08:19:45.539Z,1066.47
2022-12-31T08:20:45.542Z,1068.24
2022-12-31T08:21:45.537Z,1069.73
2022-12-31T08:22:45.618Z,1071.36
2022-12-31T08:23:45.583Z,1073.06
2022-12-31T08:24:45.558Z,1074.43
2022-12-31T08:25:45.546Z,1075.7
2022-12-31T08:26:49.506Z,1077
2022-12-31T08:27:45.583Z,1077.95
2022-12-31T08:28:45.593Z,1078.8
2022-12-31T08:29:45.571Z,1080.14
2022-12-31T08:30:45.563Z,1080.89
2022-12-31T08:31:45.587Z,1081.62
2022-12-31T08:32:45.567Z,1082.47
2022-12-31T08:33:45.601Z,1083.11
2022-12-31T08:34:45.558Z,1083.59
2022-12-31T08:35:45.564Z,1084.26
2022-12-31T08:36:45.562Z,1084.57
2022-12-31T08:37:45.576Z,1085.19
2022-12-31T08:38:45.606Z,1085.65
2022-12-31T08:39:45.575Z,1086.48
2022-12-31T08:40:45.571Z,1087.01
2022-12-31T08:41:45.579Z,1087.58
2022-12-31T08:42:45.573Z,1088.1
2022-12-31T08:43:45.626Z,1088.53
2022-12-31T08:44:45.721Z,1089.05
2022-12-31T08:45:45.612Z,1089.33
2022-12-31T08:46:45.586Z,1089.58
2022-12-31T08:47:45.593Z,1089.9
2022-12-31T08:48:45.616Z,1090.11
2022-12-31T08:49:45.588Z,1090.49
2022-12-31T08:50:45.607Z,1090.25
2022-12-31T08:51:45.602Z,1090.29
2022-12-31T08:52:45.599Z,1090.51
2022-12-31T08:53:45.614Z,1090.65
2022-12-31T08:54:45.606Z,1090.39
2022-12-31T08:55:45.618Z,1090.52
2022-12-31T08:56:50.272Z,1090.33
2022-12-31T08:57:45.641Z,1090.2
2022-12-31T08:58:45.632Z,1090.33
2022-12-31T08:59:45.631Z,1089.97
2022-12-31T09:00:45.633Z,1090.11
2022-12-31T09:01:45.679Z,1089.95
2022-12-31T09:02:48.140Z,1089.88
2022-12-31T09:03:45.693Z,1089.85
2022-12-31T09:04:45.617Z,1089.63
2022-12-31T09:05:45.626Z,1089.54
2022-12-31T09:06:45.619Z,1089.34
2022-12-31T09:07:45.624Z,1089.11
2022-12-31T09:08:45.683Z,1089.34
2022-12-31T09:09:45.627Z,1089.19
2022-12-31T09:10:45.627Z,1089.52
2022-12-31T09:11:45.634Z,1089.69
2022-12-31T09:12:45.633Z,1089.7
2022-12-31T09:13:45.656Z,1089.39
2022-12-31T09:14:45.636Z,1089.44
2022-12-31T09:15:45.662Z,1089.49
2022-12-31T09:16:45.677Z,1089.74
2022-12-31T09:17:45.681Z,1089.67
2022-12-31T09:18:45.655Z,1089.94
2022-12-31T09:19:45.640Z,1090.03
2022-12-31T09:20:45.641Z,1090.28
2022-12-31T09:21:45.646Z,1090.55
2022-12-31T09:22:45.653Z,1090.74
2022-12-31T09:23:45.674Z,1090.86
2022-12-31T09:24:45.650Z,1091
2022-12-31T09:25:45.654Z,1091.22
2022-12-31T09:26:45.648Z,1091.55
2022-12-31T09:27:45.661Z,1091.38
2022-12-31T09:28:45.693Z,1091.65
2022-12-31T09:29:45.663Z,1091.58
2022-12-31T09:30:45.662Z,1091.78
2022-12-31T09:31:45.707Z,1091.79
2022-12-31T09:32:45.673Z,1092.2
2022-12-31T09:33:45.690Z,1092.38
2022-12-31T09:34:45.661Z,1092.65
2022-12-31T09:35:45.663Z,1093.01
2022-12-31T09:36:45.674Z,1093.22
2022-12-31T09:37:45.673Z,1093.37
2022-12-31T09:38:45.745Z,1093.75
2022-12-31T09:39:45.906Z,1094.07
2022-12-31T09:40:45.674Z,1094.52
2022-12-31T09:41:45.762Z,1094.55
2022-12-31T09:42:45.687Z,1094.71
2022-12-31T09:43:45.711Z,1094.89
2022-12-31T09:44:45.686Z,1095.08
2022-12-31T09:45:45.713Z,1095.38
2022-12-31T09:46:45.687Z,1095.69
2022-12-31T09:47:45.721Z,1096.05
2022-12-31T09:48:45.717Z,1096.48
2022-12-31T09:49:45.686Z,1096.8
2022-12-31T09:50:45.694Z,1096.9
2022-12-31T09:51:45.695Z,1097.27
2022-12-31T09:52:45.702Z,1097.8
2022-12-31T09:53:45.727Z,1098.47
2022-12-31T09:54:45.695Z,1098.77
2022-12-31T09:55:45.712Z,1099.32
2022-12-31T09:56:49.061Z,1099.77
2022-12-31T09:57:45.736Z,1099.96
2022-12-31T09:58:45.728Z,1100.6
2022-12-31T09:59:45.710Z,1100.88
2022-12-31T10:00:45.714Z,1101.58
2022-12-31T10:01:45.844Z,1102.1
2022-12-31T10:02:45.973Z,1102.44
2022-12-31T10:03:45.757Z,1102.59
2022-12-31T10:04:45.712Z,1103.06
2022-12-31T10:05:45.719Z,1103.17
2022-12-31T10:06:45.728Z,1103.42
2022-12-31T10:07:52.423Z,1103.65
2022-12-31T10:08:45.751Z,1103.84
2022-12-31T10:09:45.724Z,1104.1
2022-12-31T10:10:45.731Z,1104.47
2022-12-31T10:11:45.857Z,1104.85
2022-12-31T10:12:45.736Z,1105.18
2022-12-31T10:13:45.761Z,1105.59
2022-12-31T10:14:47.646Z,1106.15
2022-12-31T10:15:45.745Z,1106.59
2022-12-31T10:16:45.794Z,1106.97
2022-12-31T10:17:45.753Z,1107.51
2022-12-31T10:18:47.516Z,1107.95
2022-12-31T10:19:45.784Z,1108.45
2022-12-31T10:20:45.757Z,1108.68
2022-12-31T10:21:45.753Z,1108.88
2022-12-31T10:22:45.770Z,1109.43
2022-12-31T10:23:45.748Z,1109.67
2022-12-31T10:24:45.756Z,1109.9
2022-12-31T10:25:46.483Z,1110.38
2022-12-31T10:26:49.898Z,1110.66
2022-12-31T10:27:45.759Z,1110.83
2022-12-31T10:28:45.757Z,1111.09
2022-12-31T10:29:48.616Z,1111.34
2022-12-31T10:30:45.855Z,1111.53
2022-12-31T10:31:45.765Z,1111.77
2022-12-31T10:32:45.781Z,1111.94
2022-12-31T10:33:45.763Z,1112.08
2022-12-31T10:34:45.775Z,1112.24
2022-12-31T10:35:45.811Z,1112.31
2022-12-31T10:36:45.775Z,1112.63
2022-12-31T10:37:45.807Z,1112.87
2022-12-31T10:38:45.787Z,1113.08
2022-12-31T10:39:45.773Z,1113.24
2022-12-31T10:40:48.785Z,1113.46
2022-12-31T10:41:45.780Z,1113.54
2022-12-31T10:42:46.835Z,1113.75
2022-12-31T10:43:45.784Z,1113.86
2022-12-31T10:44:45.795Z,1114.16
2022-12-31T10:45:45.874Z,1114.2
2022-12-31T10:46:45.827Z,1114.5
2022-12-31T10:47:45.794Z,1114.59
2022-12-31T10:48:45.801Z,1114.77
2022-12-31T10:49:45.829Z,1115.01
2022-12-31T10:50:45.800Z,1115.32
2022-12-31T10:51:45.824Z,1115.59
2022-12-31T10:52:45.804Z,1115.94
2022-12-31T10:53:45.807Z,1116.27
2022-12-31T10:54:45.807Z,1116.55
2022-12-31T10:55:45.801Z,1116.94
2022-12-31T10:56:45.809Z,1117.28
2022-12-31T10:57:45.808Z,1117.52
2022-12-31T10:58:45.810Z,1117.62
2022-12-31T10:59:45.828Z,1117.81
2022-12-31T11:00:45.821Z,1118.02
2022-12-31T11:01:45.890Z,1118.26
2022-12-31T11:02:45.880Z,1118.49
2022-12-31T11:03:45.893Z,1118.67
2022-12-31T11:04:45.817Z,1118.81
2022-12-31T11:05:45.820Z,1119.16
2022-12-31T11:06:45.820Z,1119.25
2022-12-31T11:07:45.930Z,1119.34
2022-12-31T11:08:45.837Z,1119.53
2022-12-31T11:09:45.838Z,1119.68
2022-12-31T11:10:45.834Z,1119.88
2022-12-31T11:11:45.915Z,1119.77
2022-12-31T11:12:45.836Z,1120
2022-12-31T11:13:45.851Z,1119.95
2022-12-31T11:14:45.843Z,1120.22
2022-12-31T11:15:50.008Z,1120.5
2022-12-31T11:16:45.850Z,1120.62
2022-12-31T11:17:45.837Z,1120.62
2022-12-31T11:18:45.841Z,1120.78
2022-12-31T11:19:45.851Z,1120.88
2022-12-31T11:20:45.847Z,1121.1
2022-12-31T11:21:45.850Z,1121.39
2022-12-31T11:22:45.957Z,1121.66
2022-12-31T11:23:45.898Z,1121.73
2022-12-31T11:24:46.001Z,1122.03
2022-12-31T11:25:45.867Z,1122.24
2022-12-31T11:26:45.927Z,1122.36
2022-12-31T11:27:49.242Z,1122.56
2022-12-31T11:28:45.862Z,1122.87
2022-12-31T11:29:45.866Z,1123.02
2022-12-31T11:30:45.918Z,1123.18
2022-12-31T11:31:45.921Z,1123.17
2022-12-31T11:32:45.876Z,1123.1
2022-12-31T11:33:50.244Z,1123.22
2022-12-31T11:34:45.895Z,1123.21
2022-12-31T11:35:45.878Z,1123.07
2022-12-31T11:36:45.874Z,1123.07
2022-12-31T11:37:45.911Z,1122.94
2022-12-31T11:38:45.883Z,1123.06
2022-12-31T11:39:46.015Z,1122.95
2022-12-31T11:40:45.888Z,1123.03
2022-12-31T11:41:45.889Z,1123.02
2022-12-31T11:42:45.888Z,1122.94
2022-12-31T11:43:45.895Z,1122.94
2022-12-31T11:44:45.890Z,1122.87
2022-12-31T11:45:50.483Z,1122.86
2022-12-31T11:46:45.914Z,1122.71
2022-12-31T11:48:20.419Z,1122.66
2022-12-31T11:48:45.907Z,1122.57
2022-12-31T11:49:45.902Z,1122.6
2022-12-31T11:50:45.900Z,1122.58
2022-12-31T11:51:50.293Z,1122.58
2022-12-31T11:52:45.906Z,1122.76
2022-12-31T11:53:45.904Z,1122.8
2022-12-31T11:54:45.912Z,1122.9
2022-12-31T11:55:45.944Z,1122.91
2022-12-31T11:56:45.915Z,1122.97
2022-12-31T11:57:45.918Z,1123.1
2022-12-31T11:58:45.918Z,1123.05
2022-12-31T11:59:45.921Z,1123.3
2022-12-31T12:00:45.917Z,1123.46
2022-12-31T12:01:45.918Z,1123.62
2022-12-31T12:02:45.947Z,1123.6
2022-12-31T12:03:45.963Z,1123.71
2022-12-31T12:04:45.927Z,1123.94
2022-12-31T12:05:45.927Z,1123.91
2022-12-31T12:06:45.932Z,1124.18
2022-12-31T12:07:45.935Z,1124.27
2022-12-31T12:08:45.932Z,1124.43
2022-12-31T12:09:45.954Z,1124.51
2022-12-31T12:10:45.939Z,1124.52
2022-12-31T12:11:45.973Z,1124.64